Time;durP1;ratioP1;P1;durP2;ratioP2;P2;SDS_P1;SDS_P2;PMS_P1;PMS_P2;Temp;Humidity;BMP_temperature;BMP_pressure;BME280_temperature;BME280_humidity;BME280_pressure;Samples;Min_cycle;Max_cycle;Signal;HPM_P1;HPM_P2
2023/04/06 00:02:06;;;;;;;73.10;36.97;;;0.80;51.60;;;;;;4704273;29;118208;-83
2023/04/06 00:04:33;;;;;;;84.72;38.75;;;0.80;51.70;;;;;;4720529;29;114668;-83
2023/04/06 00:07:01;;;;;;;86.93;39.92;;;0.70;51.70;;;;;;4719999;29;114935;-83
2023/04/06 00:09:29;;;;;;;86.65;41.58;;;0.80;51.60;;;;;;4706510;29;114708;-83
2023/04/06 00:11:57;;;;;;;85.47;45.33;;;0.80;51.70;;;;;;4722766;29;115200;-83
2023/04/06 00:14:25;;;;;;;95.70;49.75;;;0.70;51.80;;;;;;4722870;29;114776;-83
2023/04/06 00:16:52;;;;;;;95.80;47.30;;;0.70;51.80;;;;;;4706078;29;114925;-83
2023/04/06 00:19:19;;;;;;;83.90;46.53;;;0.70;52.00;;;;;;4705275;29;114453;-83
2023/04/06 00:21:47;;;;;;;83.20;42.47;;;0.70;52.10;;;;;;4700184;29;115628;-83
2023/04/06 00:24:14;;;;;;;80.65;40.08;;;0.70;52.40;;;;;;4701731;29;114726;-83
2023/04/06 00:26:42;;;;;;;76.32;38.63;;;0.70;52.50;;;;;;4704041;29;114630;-82
2023/04/06 00:29:09;;;;;;;78.60;38.45;;;0.70;52.40;;;;;;4702535;29;114551;-82
2023/04/06 00:31:36;;;;;;;69.47;35.15;;;0.60;52.40;;;;;;4687287;29;115744;-83
2023/04/06 00:34:04;;;;;;;81.05;39.75;;;0.60;52.70;;;;;;4686951;29;115130;-82
2023/04/06 00:36:31;;;;;;;75.97;38.08;;;0.60;52.60;;;;;;4702126;29;114686;-82
2023/04/06 00:38:59;;;;;;;79.75;38.88;;;0.70;52.50;;;;;;4701953;29;114707;-82
2023/04/06 00:41:27;;;;;;;76.57;39.20;;;0.60;52.30;;;;;;4673039;29;115424;-83
2023/04/06 00:43:54;;;;;;;76.00;39.03;;;0.60;52.30;;;;;;4703363;29;114667;-82
2023/04/06 00:46:22;;;;;;;75.28;38.17;;;0.60;52.30;;;;;;4702907;29;115741;-83
2023/04/06 00:48:50;;;;;;;78.22;39.50;;;0.60;52.50;;;;;;4688479;29;114590;-83
2023/04/06 00:51:17;;;;;;;74.15;38.88;;;0.60;52.60;;;;;;4671688;29;117993;-83
2023/04/06 00:53:45;;;;;;;80.70;42.60;;;0.60;52.90;;;;;;4686040;29;117174;-83
2023/04/06 00:56:13;;;;;;;79.53;40.05;;;0.60;52.70;;;;;;4701768;29;114757;-83
2023/04/06 00:58:55;;;;;;;79.90;41.63;;;0.70;53.00;;;;;;4701245;29;115487;-83
2023/04/06 01:01:32;;;;;;;80.30;40.75;;;0.60;52.60;;;;;;4682193;30;115469;-82
2023/04/06 01:04:05;;;;;;;86.25;45.00;;;0.60;52.50;;;;;;4685799;29;115303;-82
2023/04/06 01:06:40;;;;;;;83.20;42.53;;;0.60;52.60;;;;;;4687888;29;116280;-83
2023/04/06 01:09:07;;;;;;;88.88;45.35;;;0.50;52.50;;;;;;4701861;29;114626;-82
2023/04/06 01:11:35;;;;;;;84.90;42.00;;;0.50;52.50;;;;;;4671312;29;116665;-82
2023/04/06 01:14:05;;;;;;;76.10;40.33;;;0.50;52.60;;;;;;4686215;29;114926;-82
2023/04/06 01:16:50;;;;;;;59.72;31.42;;;0.40;52.60;;;;;;4662859;29;114642;-84
2023/04/06 01:19:21;;;;;;;62.67;31.95;;;0.40;53.00;;;;;;4674857;29;114505;-83
2023/04/06 01:21:53;;;;;;;69.47;36.00;;;0.40;53.00;;;;;;4675861;29;115255;-84
2023/04/06 01:24:29;;;;;;;69.78;34.25;;;0.40;52.80;;;;;;4691831;29;114745;-85
2023/04/06 01:27:10;;;;;;;65.05;34.88;;;0.30;52.90;;;;;;4705975;29;114548;-84
2023/04/06 01:29:56;;;;;;;67.72;33.78;;;0.30;52.90;;;;;;4707474;29;114935;-84
2023/04/06 01:32:43;;;;;;;74.43;38.15;;;0.20;52.90;;;;;;4705780;29;115364;-85
2023/04/06 01:35:13;;;;;;;67.82;34.67;;;0.20;53.00;;;;;;4703661;29;115995;-84
2023/04/06 01:37:47;;;;;;;70.57;37.63;;;0.10;53.10;;;;;;4718607;29;114780;-84
2023/04/06 01:40:23;;;;;;;74.22;38.38;;;0.10;53.40;;;;;;4677096;29;114596;-84
2023/04/06 01:43:02;;;;;;;80.53;41.30;;;0.10;53.30;;;;;;4705181;29;115472;-83
2023/04/06 01:45:36;;;;;;;80.55;42.88;;;0.10;53.70;;;;;;4703319;29;114973;-83
2023/04/06 01:48:13;;;;;;;79.93;41.92;;;0.10;53.80;;;;;;4705282;29;116601;-84
2023/04/06 01:50:41;;;;;;;80.15;41.65;;;0.10;53.80;;;;;;4718838;29;114771;-83
2023/04/06 01:53:11;;;;;;;86.68;42.72;;;0.10;54.00;;;;;;4718390;29;115315;-83
2023/04/06 01:55:40;;;;;;;89.93;42.30;;;0.10;54.00;;;;;;4689207;29;115245;-84
2023/04/06 01:58:20;;;;;;;87.88;43.60;;;0.20;53.80;;;;;;4706486;29;114929;-84
2023/04/06 02:00:47;;;;;;;82.63;42.70;;;0.10;53.60;;;;;;4705845;29;118519;-84
2023/04/06 02:03:16;;;;;;;83.05;41.63;;;0.10;53.80;;;;;;4691512;29;115334;-84
2023/04/06 02:05:44;;;;;;;82.15;41.95;;;0.10;53.90;;;;;;4691278;29;116003;-82
2023/04/06 02:08:19;;;;;;;84.63;44.28;;;0.10;53.70;;;;;;4693213;29;114596;-83
2023/04/06 02:10:47;;;;;;;94.05;46.00;;;0.00;53.60;;;;;;4673698;29;114626;-83
2023/04/06 02:13:24;;;;;;;82.25;42.40;;;-0.10;53.60;;;;;;4720375;29;115733;-83
2023/04/06 02:15:53;;;;;;;81.38;41.88;;;-0.10;53.60;;;;;;4720559;29;114971;-83
2023/04/06 02:18:20;;;;;;;77.75;40.78;;;-0.10;53.60;;;;;;4722860;29;115088;-83
2023/04/06 02:20:48;;;;;;;79.95;40.17;;;-0.10;53.70;;;;;;4707481;29;114993;-83
2023/04/06 02:23:22;;;;;;;81.05;41.70;;;-0.10;53.90;;;;;;4705847;29;115694;-83
2023/04/06 02:25:50;;;;;;;78.10;41.05;;;-0.20;54.00;;;;;;4692209;29;118174;-82
2023/04/06 02:28:17;;;;;;;80.70;41.35;;;-0.20;54.10;;;;;;4721243;29;115369;-82
2023/04/06 02:30:44;;;;;;;79.05;38.42;;;-0.10;54.20;;;;;;4706934;29;114789;-82
2023/04/06 02:33:17;;;;;;;77.05;39.33;;;-0.10;54.10;;;;;;4706442;29;118428;-82
2023/04/06 02:35:46;;;;;;;87.18;40.00;;;-0.10;54.20;;;;;;4721329;29;114677;-82
2023/04/06 02:38:14;;;;;;;80.60;39.42;;;-0.10;54.10;;;;;;4722208;29;114847;-82
2023/04/06 02:40:41;;;;;;;88.70;40.92;;;-0.10;54.10;;;;;;4707635;29;114664;-82
2023/04/06 02:43:19;;;;;;;82.18;41.35;;;-0.10;54.20;;;;;;4722525;29;115183;-82
2023/04/06 02:45:48;;;;;;;90.90;45.25;;;-0.10;54.20;;;;;;4723039;29;114872;-82
2023/04/06 02:48:15;;;;;;;80.50;40.67;;;-0.10;54.20;;;;;;4706928;29;114565;-82
2023/04/06 02:50:43;;;;;;;82.15;43.22;;;-0.20;54.60;;;;;;4722463;29;114932;-82
2023/04/06 02:53:10;;;;;;;78.30;42.65;;;-0.20;54.70;;;;;;4705491;29;115050;-82
2023/04/06 02:55:39;;;;;;;73.20;39.45;;;-0.30;54.80;;;;;;4706154;29;118008;-83
2023/04/06 02:58:06;;;;;;;80.25;42.47;;;-0.20;55.00;;;;;;4721961;29;115584;-83
2023/04/06 03:00:44;;;;;;;85.43;43.90;;;-0.20;54.80;;;;;;4722872;29;115095;-82
2023/04/06 03:03:11;;;;;;;81.70;42.47;;;-0.20;54.80;;;;;;4721094;29;115305;-83
2023/04/06 03:05:40;;;;;;;73.10;38.63;;;-0.20;54.60;;;;;;4720555;29;114921;-83
2023/04/06 03:08:08;;;;;;;85.82;41.78;;;-0.20;54.60;;;;;;4721695;29;114640;-82
2023/04/06 03:10:42;;;;;;;91.25;44.58;;;-0.20;54.70;;;;;;4700469;29;114800;-81
2023/04/06 03:13:09;;;;;;;80.25;43.30;;;-0.20;54.50;;;;;;4690893;29;116468;-83
2023/04/06 03:15:46;;;;;;;90.95;44.47;;;-0.30;54.40;;;;;;4687080;29;114784;-83
2023/04/06 03:18:22;;;;;;;85.60;44.88;;;-0.40;54.30;;;;;;4720214;29;114534;-82
2023/04/06 03:20:53;;;;;;;88.60;42.80;;;-0.30;54.50;;;;;;4674662;29;114893;-82
2023/04/06 03:23:23;;;;;;;86.47;43.70;;;-0.40;54.40;;;;;;4703321;29;115487;-82
2023/04/06 03:25:55;;;;;;;81.97;41.80;;;-0.50;54.50;;;;;;4719822;29;114635;-82
2023/04/06 03:28:23;;;;;;;76.65;39.55;;;-0.50;54.60;;;;;;4721025;29;114873;-82
2023/04/06 03:30:54;;;;;;;74.68;39.05;;;-0.50;54.60;;;;;;4717492;29;114486;-82
2023/04/06 03:33:38;;;;;;;59.95;30.85;;;-0.60;54.80;;;;;;4704696;29;118082;-82
2023/04/06 03:36:08;;;;;;;71.07;37.33;;;-0.60;54.80;;;;;;4692148;29;116045;-82
2023/04/06 03:38:40;;;;;;;80.20;38.55;;;-0.60;55.00;;;;;;4721433;29;115896;-82
2023/04/06 03:41:11;;;;;;;73.07;36.63;;;-0.70;55.10;;;;;;4707724;29;114780;-82
2023/04/06 03:43:42;;;;;;;78.55;38.15;;;-0.60;55.10;;;;;;4720550;29;115206;-82
2023/04/06 03:46:10;;;;;;;74.22;36.38;;;-0.70;55.20;;;;;;4705289;29;114679;-83
2023/04/06 03:48:38;;;;;;;74.72;36.53;;;-0.70;55.40;;;;;;4691390;29;115449;-83
2023/04/06 03:51:06;;;;;;;70.15;37.25;;;-0.70;55.50;;;;;;4720376;29;114585;-83
2023/04/06 03:53:33;;;;;;;68.45;35.75;;;-0.70;55.60;;;;;;4705110;29;116127;-82
2023/04/06 03:56:01;;;;;;;72.10;36.80;;;-0.70;55.60;;;;;;4690635;29;114714;-83
2023/04/06 03:58:31;;;;;;;78.70;39.60;;;-0.70;55.60;;;;;;4721917;29;114625;-84
2023/04/06 04:00:58;;;;;;;70.22;37.58;;;-0.70;55.60;;;;;;4705978;29;114647;-85
2023/04/06 04:03:27;;;;;;;71.07;35.45;;;-0.70;55.80;;;;;;4720726;29;115308;-84
2023/04/06 04:05:55;;;;;;;70.30;35.70;;;-0.70;55.80;;;;;;4704746;29;114820;-85
2023/04/06 04:08:24;;;;;;;70.57;35.13;;;-0.80;55.80;;;;;;4691100;29;115253;-84
2023/04/06 04:10:52;;;;;;;73.22;36.88;;;-0.70;56.20;;;;;;4705501;29;114726;-82
2023/04/06 04:13:20;;;;;;;78.38;38.67;;;-0.80;56.00;;;;;;4704627;29;115195;-81
2023/04/06 04:15:51;;;;;;;82.20;41.13;;;-0.70;56.10;;;;;;4719649;29;114871;-83
2023/04/06 04:18:18;;;;;;;82.00;41.15;;;-0.70;56.10;;;;;;4701943;29;115629;-84
2023/04/06 04:20:46;;;;;;;82.03;42.10;;;-0.70;56.10;;;;;;4721570;29;114650;-83
2023/04/06 04:23:13;;;;;;;74.70;40.95;;;-0.70;56.00;;;;;;4704318;29;115106;-82
2023/04/06 04:25:40;;;;;;;81.55;40.70;;;-0.60;55.90;;;;;;4712480;29;114709;-84
2023/04/06 04:28:08;;;;;;;73.40;39.08;;;-0.70;55.80;;;;;;4690707;29;114692;-83
2023/04/06 04:30:40;;;;;;;74.18;38.42;;;-0.70;55.80;;;;;;4690886;29;115001;-83
2023/04/06 04:33:10;;;;;;;76.80;39.50;;;-0.70;56.00;;;;;;4718585;29;116704;-84
2023/04/06 04:35:40;;;;;;;69.97;36.40;;;-0.70;55.80;;;;;;4719012;29;114834;-83
2023/04/06 04:38:10;;;;;;;74.80;37.58;;;-0.70;56.10;;;;;;4705867;29;114779;-82
2023/04/06 04:40:41;;;;;;;80.72;39.05;;;-0.70;56.20;;;;;;4706577;29;114630;-84
2023/04/06 04:43:11;;;;;;;96.28;44.90;;;-0.70;56.20;;;;;;4704476;29;116857;-84
2023/04/06 04:45:40;;;;;;;103.00;45.63;;;-0.70;56.30;;;;;;4704202;29;118621;-84
2023/04/06 04:48:26;;;;;;;108.68;47.28;;;-0.70;56.40;;;;;;4696195;29;114901;-84
2023/04/06 04:51:01;;;;;;;;;;;-0.60;56.30;;;;;;4696776;29;114825;-85
2023/04/06 04:53:40;;;;;;;82.63;38.78;;;-0.70;55.90;;;;;;4695936;29;117586;-85
2023/04/06 04:56:17;;;;;;;89.05;41.67;;;-0.80;56.20;;;;;;4710415;29;114609;-82
2023/04/06 04:58:50;;;;;;;78.00;36.47;;;-0.70;56.50;;;;;;4664101;29;115101;-83
2023/04/06 05:01:18;;;;;;;99.50;49.42;;;-0.70;56.30;;;;;;4663861;29;114647;-82
2023/04/06 05:03:46;;;;;;;105.30;49.22;;;-0.70;56.50;;;;;;4708876;29;115257;-83
2023/04/06 05:06:15;;;;;;;99.10;47.63;;;-0.60;56.80;;;;;;4708164;29;114743;-83
2023/04/06 05:08:43;;;;;;;93.85;46.83;;;-0.60;56.60;;;;;;4675652;29;116522;-83
2023/04/06 05:11:11;;;;;;;104.97;50.97;;;-0.60;56.80;;;;;;4709435;29;114435;-82
2023/04/06 05:13:44;;;;;;;98.97;49.08;;;-0.60;56.90;;;;;;4688700;29;115080;-82
2023/04/06 05:16:19;;;;;;;92.97;47.83;;;-0.50;56.60;;;;;;4684312;29;114872;-83
2023/04/06 05:18:48;;;;;;;96.75;49.08;;;-0.50;56.70;;;;;;4677951;29;116231;-81
2023/04/06 05:21:15;;;;;;;99.50;50.90;;;-0.50;56.80;;;;;;4673107;29;114621;-82
2023/04/06 05:23:56;;;;;;;95.53;50.55;;;-0.50;56.60;;;;;;4711990;29;116124;-82
2023/04/06 05:26:24;;;;;;;87.53;47.03;;;-0.50;56.40;;;;;;4707619;29;117289;-82
2023/04/06 05:28:56;;;;;;;84.65;45.65;;;-0.40;56.40;;;;;;4686946;29;114920;-82
2023/04/06 05:31:25;;;;;;;88.22;47.83;;;-0.40;56.40;;;;;;4716209;29;114548;-82
2023/04/06 05:33:53;;;;;;;83.57;47.70;;;-0.30;56.40;;;;;;4716515;29;115314;-81
2023/04/06 05:36:31;;;;;;;82.72;45.80;;;-0.30;56.30;;;;;;4699626;29;114790;-81
2023/04/06 05:39:04;;;;;;;82.43;42.67;;;-0.20;56.20;;;;;;4706517;29;115038;-82
2023/04/06 05:41:39;;;;;;;79.85;41.38;;;-0.20;56.20;;;;;;4680820;29;115040;-82
2023/04/06 05:44:14;;;;;;;78.55;41.10;;;-0.10;56.10;;;;;;4697573;29;116216;-81
2023/04/06 05:46:46;;;;;;;72.50;40.25;;;0.00;56.00;;;;;;4707464;29;115423;-82
2023/04/06 05:49:16;;;;;;;80.30;40.92;;;0.10;55.80;;;;;;4690313;29;115036;-83
2023/04/06 05:51:44;;;;;;;84.95;44.65;;;0.10;55.70;;;;;;4687806;29;118159;-83
2023/04/06 05:57:03;;;;;;;79.65;42.42;;;0.20;55.60;;;;;;4689169;29;115072;-83
2023/04/06 05:59:31;;;;;;;77.82;43.85;;;0.30;55.50;;;;;;4659459;29;115071;-82
2023/04/06 06:02:01;;;;;;;77.88;41.15;;;0.40;55.40;;;;;;4702216;29;115186;-82
2023/04/06 06:04:33;;;;;;;85.88;43.35;;;0.50;55.30;;;;;;4678806;29;116637;-82
2023/04/06 06:07:01;;;;;;;78.22;43.70;;;0.50;55.20;;;;;;4678455;29;115648;-81
2023/04/06 06:09:36;;;;;;;82.93;43.17;;;0.60;55.20;;;;;;4662657;29;114620;-82
2023/04/06 06:12:14;;;;;;;73.00;41.78;;;0.60;55.20;;;;;;4679560;29;115370;-83
2023/04/06 06:14:42;;;;;;;74.38;41.38;;;0.70;55.40;;;;;;4662321;29;116136;-82
2023/04/06 06:17:09;;;;;;;79.55;42.05;;;0.70;55.10;;;;;;4661068;29;118163;-82
2023/04/06 06:19:40;;;;;;;78.47;42.70;;;0.80;55.20;;;;;;4672989;29;115030;-82
2023/04/06 06:22:08;;;;;;;86.35;42.55;;;1.00;54.90;;;;;;4652278;29;115133;-82
2023/04/06 06:24:39;;;;;;;76.63;41.67;;;1.10;54.80;;;;;;4666044;29;117257;-82
2023/04/06 06:27:07;;;;;;;80.18;42.53;;;1.10;54.70;;;;;;4677974;29;116413;-83
2023/04/06 06:29:36;;;;;;;85.60;43.20;;;1.30;54.40;;;;;;4689522;29;114741;-82
2023/04/06 06:32:09;;;;;;;81.93;44.28;;;1.40;54.30;;;;;;4710311;29;114791;-82
2023/04/06 06:34:40;;;;;;;79.93;44.20;;;1.60;54.20;;;;;;4712213;29;115233;-82
2023/04/06 06:37:08;;;;;;;81.80;42.95;;;1.70;53.90;;;;;;4692806;29;114842;-82
2023/04/06 06:39:37;;;;;;;91.88;45.78;;;1.80;53.60;;;;;;4707996;29;114814;-82
2023/04/06 06:42:05;;;;;;;86.13;45.70;;;1.90;53.40;;;;;;4716170;29;114489;-82
2023/04/06 06:44:59;;;;;;;82.45;45.85;;;2.00;53.20;;;;;;4713894;29;115215;-82
2023/04/06 06:47:28;;;;;;;82.50;44.15;;;2.20;53.10;;;;;;4676661;30;114676;-82
2023/04/06 06:50:03;;;;;;;80.60;43.60;;;2.30;52.90;;;;;;4681710;30;114742;-82
2023/04/06 06:52:31;;;;;;;86.07;48.03;;;2.50;52.70;;;;;;4670046;30;115803;-82
2023/04/06 06:55:26;;;;;;;79.72;43.83;;;2.60;52.70;;;;;;4637734;30;117670;-82
2023/04/06 06:57:59;;;;;;;75.45;40.78;;;2.80;52.60;;;;;;4656213;30;115638;-82
2023/04/06 07:00:27;;;;;;;73.35;41.78;;;2.80;52.40;;;;;;4668328;30;116118;-82
2023/04/06 07:02:56;;;;;;;73.32;41.72;;;3.00;52.10;;;;;;4683591;30;114652;-82
2023/04/06 07:05:26;;;;;;;70.13;38.75;;;3.10;52.00;;;;;;4667006;30;115245;-82
2023/04/06 07:07:57;;;;;;;77.13;40.58;;;3.20;51.60;;;;;;4669754;30;114933;-82
2023/04/06 07:10:52;;;;;;;73.07;39.97;;;3.30;51.60;;;;;;4667401;30;116416;-82
2023/04/06 07:13:27;;;;;;;71.80;40.65;;;3.50;51.00;;;;;;4666117;30;116658;-82
2023/04/06 07:15:57;;;;;;;71.72;39.63;;;3.60;50.70;;;;;;4665483;30;115354;-82
2023/04/06 07:18:25;;;;;;;68.25;38.42;;;3.60;50.40;;;;;;4672851;29;114610;-83
2023/04/06 07:20:57;;;;;;;57.25;34.35;;;3.70;50.10;;;;;;4706704;29;114569;-83
2023/04/06 07:23:25;;;;;;;35.88;20.92;;;3.70;49.40;;;;;;4686932;29;114772;-82
2023/04/06 07:25:55;;;;;;;29.67;17.88;;;3.80;48.80;;;;;;4718940;29;115693;-82
2023/04/06 07:28:29;;;;;;;23.17;15.02;;;3.60;47.70;;;;;;4705791;29;117311;-81
2023/04/06 07:31:01;;;;;;;26.40;17.15;;;3.50;47.60;;;;;;4679027;29;114619;-82
2023/04/06 07:33:33;;;;;;;31.85;18.63;;;3.20;47.40;;;;;;4691996;29;116568;-82
2023/04/06 07:36:02;;;;;;;30.17;18.58;;;3.20;47.60;;;;;;4692102;29;115588;-82
2023/04/06 07:38:31;;;;;;;29.77;18.73;;;3.10;48.00;;;;;;4717546;29;115920;-82
2023/04/06 07:40:59;;;;;;;32.13;18.75;;;3.00;47.70;;;;;;4686963;29;114577;-82
2023/04/06 07:43:30;;;;;;;29.77;17.85;;;3.10;47.80;;;;;;4690238;29;117523;-82
2023/04/06 07:46:00;;;;;;;34.92;19.42;;;3.00;47.50;;;;;;4686521;29;118245;-82
2023/04/06 07:48:29;;;;;;;30.17;18.35;;;2.90;47.40;;;;;;4674306;29;116245;-81
2023/04/06 07:51:08;;;;;;;37.08;19.55;;;2.70;47.40;;;;;;4720506;29;114809;-82
2023/04/06 07:53:39;;;;;;;36.10;18.88;;;2.70;47.90;;;;;;4683239;29;114605;-82
2023/04/06 07:56:07;;;;;;;35.63;20.98;;;2.60;48.20;;;;;;4716865;29;117678;-82
2023/04/06 07:58:34;;;;;;;36.75;22.02;;;2.70;48.20;;;;;;4687828;29;114987;-82
2023/04/06 08:01:02;;;;;;;29.10;17.50;;;2.70;48.20;;;;;;4722138;29;114499;-83
2023/04/06 08:03:41;;;;;;;28.67;14.20;;;2.60;48.10;;;;;;4705441;29;114969;-82
2023/04/06 08:06:09;;;;;;;23.60;14.68;;;2.50;47.80;;;;;;4721589;29;115750;-82
2023/04/06 08:08:37;;;;;;;20.58;13.10;;;2.30;47.80;;;;;;4717272;29;115638;-83
2023/04/06 08:11:04;;;;;;;21.33;14.35;;;2.20;47.60;;;;;;4718264;29;114553;-83
2023/04/06 08:13:32;;;;;;;22.33;12.70;;;2.00;47.70;;;;;;4700372;29;115121;-82
2023/04/06 08:16:00;;;;;;;19.35;11.27;;;1.90;47.90;;;;;;4704217;29;115292;-83
2023/04/06 08:18:29;;;;;;;22.38;13.38;;;2.00;47.80;;;;;;4718665;29;115167;-83
2023/04/06 08:20:56;;;;;;;20.15;12.73;;;2.00;47.80;;;;;;4721541;29;114546;-83
2023/04/06 08:23:24;;;;;;;26.08;14.52;;;2.00;48.00;;;;;;4704647;29;114609;-82
2023/04/06 08:25:54;;;;;;;26.98;15.57;;;1.90;48.40;;;;;;4701190;29;116037;-83
2023/04/06 08:28:21;;;;;;;29.40;16.38;;;2.00;48.40;;;;;;4687042;29;115108;-83
2023/04/06 08:30:48;;;;;;;26.65;15.48;;;2.20;48.80;;;;;;4717408;29;114455;-83
2023/04/06 08:33:16;;;;;;;23.60;15.02;;;2.50;48.70;;;;;;4719258;29;114564;-83
2023/04/06 08:35:47;;;;;;;28.38;14.02;;;2.70;48.20;;;;;;4692197;29;115359;-84
2023/04/06 08:38:14;;;;;;;18.45;11.75;;;2.90;47.60;;;;;;4694794;29;114988;-83
2023/04/06 08:40:44;;;;;;;19.38;11.35;;;3.20;47.30;;;;;;4708062;29;115041;-83
2023/04/06 08:43:14;;;;;;;14.82;9.95;;;3.30;46.60;;;;;;4676838;29;114944;-83
2023/04/06 08:45:42;;;;;;;17.08;10.65;;;3.40;45.90;;;;;;4676451;29;115240;-83
2023/04/06 08:48:16;;;;;;;18.08;10.98;;;3.40;45.40;;;;;;4707610;29;114670;-83
2023/04/06 08:50:43;;;;;;;17.85;10.50;;;3.30;44.90;;;;;;4696579;29;114680;-82
2023/04/06 08:53:13;;;;;;;17.98;9.98;;;3.20;45.20;;;;;;4675217;29;114494;-83
2023/04/06 08:55:42;;;;;;;17.17;10.80;;;3.10;45.20;;;;;;4683851;29;116057;-83
2023/04/06 08:58:10;;;;;;;21.85;12.10;;;3.20;45.00;;;;;;4661238;29;114808;-83
2023/04/06 09:00:40;;;;;;;16.63;10.57;;;3.10;44.70;;;;;;4662363;29;114617;-83
2023/04/06 09:03:07;;;;;;;18.27;11.02;;;3.00;44.80;;;;;;4676191;29;114976;-83
2023/04/06 09:05:35;;;;;;;18.55;9.88;;;3.00;45.10;;;;;;4678569;29;115889;-82
2023/04/06 09:08:04;;;;;;;16.88;10.43;;;3.00;45.50;;;;;;4673956;29;116700;-83
2023/04/06 09:10:35;;;;;;;18.25;10.07;;;3.20;45.80;;;;;;4713215;29;114664;-84
2023/04/06 09:13:05;;;;;;;15.25;10.32;;;3.40;45.60;;;;;;4678576;29;115027;-84
2023/04/06 09:15:33;;;;;;;19.38;11.70;;;3.60;44.70;;;;;;4695844;29;116837;-83
2023/04/06 09:18:00;;;;;;;21.33;11.20;;;3.60;44.40;;;;;;4705172;29;114891;-83
2023/04/06 09:20:30;;;;;;;18.60;11.65;;;3.60;44.40;;;;;;4705057;29;114669;-83
2023/04/06 09:22:59;;;;;;;23.00;11.40;;;3.50;44.50;;;;;;4707788;29;114949;-83
2023/04/06 09:25:31;;;;;;;26.17;14.18;;;3.60;44.60;;;;;;4689123;29;116033;-83
2023/04/06 09:28:03;;;;;;;19.38;11.82;;;3.60;44.20;;;;;;4678580;29;117763;-83
2023/04/06 09:30:31;;;;;;;19.92;11.93;;;3.60;44.10;;;;;;4725012;29;114571;-83
2023/04/06 09:32:59;;;;;;;16.35;10.77;;;3.60;44.20;;;;;;4708847;29;114604;-83
2023/04/06 09:35:29;;;;;;;19.75;10.95;;;3.70;44.20;;;;;;4708054;29;115340;-83
2023/04/06 09:37:57;;;;;;;18.42;10.07;;;3.60;43.90;;;;;;4706291;29;114735;-83
2023/04/06 09:40:25;;;;;;;19.65;11.48;;;3.60;44.00;;;;;;4694568;29;114745;-83
2023/04/06 09:42:57;;;;;;;18.88;11.82;;;3.50;44.10;;;;;;4705844;29;114738;-83
2023/04/06 09:45:25;;;;;;;17.58;11.90;;;3.60;44.20;;;;;;4691086;29;116533;-83
2023/04/06 09:47:53;;;;;;;17.42;11.35;;;3.60;44.50;;;;;;4678527;29;115354;-83
2023/04/06 09:50:21;;;;;;;19.55;12.30;;;3.60;44.30;;;;;;4708618;29;114569;-82
2023/04/06 09:52:50;;;;;;;16.92;11.05;;;3.60;44.50;;;;;;4668164;29;114592;-83
2023/04/06 09:55:32;;;;;;;18.88;11.55;;;3.70;44.20;;;;;;4707134;29;115081;-84
2023/04/06 09:58:07;;;;;;;20.08;11.35;;;3.70;43.30;;;;;;4677998;29;114762;-80
2023/04/06 10:01:14;;;;;;;18.42;11.90;;;3.70;43.70;;;;;;4686105;29;114893;-84
2023/04/06 10:04:23;;;;;;;21.58;12.82;;;3.70;43.90;;;;;;4721515;29;117152;-83
2023/04/06 10:06:52;;;;;;;23.35;13.32;;;3.70;43.90;;;;;;4694257;29;114897;-84
2023/04/06 10:09:24;;;;;;;20.02;12.05;;;3.80;43.50;;;;;;4721078;29;114923;-83
2023/04/06 10:11:52;;;;;;;22.92;13.88;;;3.80;43.60;;;;;;4709086;29;118353;-83
2023/04/06 10:14:21;;;;;;;22.80;13.95;;;3.90;43.50;;;;;;4704430;29;114962;-83
2023/04/06 10:16:50;;;;;;;26.02;14.55;;;3.90;43.40;;;;;;4698166;29;116061;-83
2023/04/06 10:19:25;;;;;;;20.13;12.27;;;4.00;43.20;;;;;;4710096;29;115169;-83
2023/04/06 10:21:55;;;;;;;23.27;13.57;;;4.00;42.40;;;;;;4672543;29;115380;-83
2023/04/06 10:24:22;;;;;;;21.38;13.73;;;3.80;42.60;;;;;;4692886;29;117418;-83
2023/04/06 10:27:02;;;;;;;18.52;12.93;;;3.70;43.00;;;;;;4708524;29;116542;-83
2023/04/06 10:29:45;;;;;;;22.13;14.20;;;3.70;43.20;;;;;;4695496;29;114783;-84
2023/04/06 10:32:12;;;;;;;22.92;13.20;;;3.70;43.20;;;;;;4693581;29;114794;-84
2023/04/06 10:34:39;;;;;;;24.23;14.95;;;3.80;43.20;;;;;;4697190;29;116290;-84
2023/04/06 10:37:14;;;;;;;24.42;14.18;;;3.90;42.90;;;;;;4705513;29;115253;-83
2023/04/06 10:39:54;;;;;;;21.33;13.15;;;3.80;42.50;;;;;;4712937;29;114870;-83
2023/04/06 10:42:25;;;;;;;22.35;12.55;;;3.70;42.50;;;;;;4685039;29;114914;-83
2023/04/06 10:44:53;;;;;;;21.00;13.20;;;3.70;42.90;;;;;;4716430;29;114467;-84
2023/04/06 10:47:20;;;;;;;20.70;12.98;;;3.70;43.30;;;;;;4713438;29;115466;-84
2023/04/06 10:49:47;;;;;;;20.55;12.70;;;3.90;43.30;;;;;;4692565;29;114665;-83
2023/04/06 10:52:15;;;;;;;22.25;13.52;;;4.10;43.30;;;;;;4667682;29;118851;-84
2023/04/06 10:54:46;;;;;;;19.45;11.80;;;4.30;42.90;;;;;;4695136;29;114645;-84
2023/04/06 10:57:17;;;;;;;23.33;13.18;;;4.40;42.40;;;;;;4683628;29;115249;-85
2023/04/06 10:59:44;;;;;;;23.23;14.05;;;4.50;42.80;;;;;;4703644;29;115481;-83
2023/04/06 11:02:21;;;;;;;20.83;11.30;;;4.60;42.70;;;;;;4696885;29;114502;-84
2023/04/06 11:04:58;;;;;;;16.55;11.75;;;4.80;42.10;;;;;;4707920;29;114689;-84
2023/04/06 11:07:26;;;;;;;19.67;11.35;;;4.90;41.80;;;;;;4677822;29;116518;-83
2023/04/06 11:09:56;;;;;;;21.25;12.40;;;4.80;42.10;;;;;;4711052;29;114803;-83
2023/04/06 11:12:44;;;;;;;22.10;11.98;;;4.90;41.90;;;;;;4695673;29;114567;-83
2023/04/06 11:15:13;;;;;;;18.75;11.93;;;5.00;41.60;;;;;;4699836;29;116693;-83
2023/04/06 11:17:41;;;;;;;18.08;11.10;;;5.10;41.60;;;;;;4693047;29;115699;-83
2023/04/06 11:20:10;;;;;;;21.23;11.85;;;5.20;41.50;;;;;;4693328;29;114741;-83
2023/04/06 11:22:53;;;;;;;16.67;11.85;;;5.20;41.30;;;;;;4680653;29;115090;-83
2023/04/06 11:25:21;;;;;;;16.58;10.48;;;5.20;41.30;;;;;;4705762;29;114746;-82
2023/04/06 11:27:48;;;;;;;18.95;12.00;;;5.20;41.30;;;;;;4711608;29;116602;-83
2023/04/06 11:30:15;;;;;;;17.05;10.93;;;5.20;40.90;;;;;;4689815;29;115930;-83
2023/04/06 11:32:44;;;;;;;22.00;12.25;;;5.20;40.80;;;;;;4681488;29;114648;-83
2023/04/06 11:35:24;;;;;;;18.38;12.13;;;5.00;41.10;;;;;;4692926;29;114769;-83
2023/04/06 11:37:52;;;;;;;19.85;11.93;;;4.80;41.10;;;;;;4703278;29;115243;-83
2023/04/06 11:40:33;;;;;;;18.15;11.65;;;4.70;41.60;;;;;;4710345;29;114698;-83
2023/04/06 11:43:31;;;;;;;17.73;11.18;;;4.80;41.30;;;;;;4695553;29;114720;-83
2023/04/06 11:46:03;;;;;;;14.75;10.57;;;4.70;41.50;;;;;;4691454;29;114761;-83
2023/04/06 11:48:33;;;;;;;15.45;10.07;;;4.60;41.40;;;;;;4706206;29;115569;-83
2023/04/06 11:51:01;;;;;;;17.52;11.60;;;4.50;41.70;;;;;;4711823;29;114637;-83
2023/04/06 11:53:29;;;;;;;15.43;10.40;;;4.60;41.80;;;;;;4693824;29;114572;-82
2023/04/06 11:55:57;;;;;;;16.60;10.27;;;4.50;41.50;;;;;;4679081;29;114834;-82
2023/04/06 11:58:24;;;;;;;16.92;10.45;;;4.50;41.50;;;;;;4715915;29;115299;-82
2023/04/06 12:00:52;;;;;;;17.67;10.93;;;4.30;41.60;;;;;;4722434;29;114968;-83
2023/04/06 12:03:19;;;;;;;16.83;10.88;;;4.30;42.10;;;;;;4707013;29;114927;-83
2023/04/06 12:05:47;;;;;;;17.48;11.13;;;4.40;42.20;;;;;;4701695;29;114668;-83
2023/04/06 12:08:15;;;;;;;19.73;11.52;;;4.50;42.20;;;;;;4713444;29;115362;-82
2023/04/06 12:10:42;;;;;;;17.08;11.25;;;4.60;42.20;;;;;;4722000;29;114738;-82
2023/04/06 12:13:09;;;;;;;20.02;11.63;;;4.60;42.20;;;;;;4704121;29;114738;-83
2023/04/06 12:15:37;;;;;;;16.00;10.70;;;4.70;42.20;;;;;;4721485;29;114846;-83
2023/04/06 12:18:05;;;;;;;17.52;10.93;;;4.70;41.90;;;;;;4719764;29;115736;-83
2023/04/06 12:20:32;;;;;;;19.13;12.18;;;4.70;42.00;;;;;;4705959;29;114796;-83
2023/04/06 12:23:00;;;;;;;15.18;11.98;;;4.70;41.90;;;;;;4722573;29;114503;-83
2023/04/06 12:25:27;;;;;;;16.40;11.02;;;4.70;42.00;;;;;;4705489;29;114814;-83
2023/04/06 12:27:57;;;;;;;16.30;11.45;;;4.60;41.80;;;;;;4710420;29;115369;-83
2023/04/06 12:30:25;;;;;;;18.80;10.90;;;4.40;41.70;;;;;;4721459;29;114675;-83
2023/04/06 12:32:53;;;;;;;16.55;11.38;;;4.30;41.70;;;;;;4689843;29;114515;-83
2023/04/06 12:35:20;;;;;;;16.27;10.65;;;4.20;41.90;;;;;;4707211;29;114430;-83
2023/04/06 12:37:48;;;;;;;16.73;10.90;;;4.10;42.20;;;;;;4731226;29;115532;-83
2023/04/06 12:40:18;;;;;;;19.20;11.88;;;4.10;42.40;;;;;;4711862;29;115605;-83
2023/04/06 12:42:46;;;;;;;19.75;11.93;;;4.20;42.60;;;;;;4713424;29;116954;-83
2023/04/06 12:45:13;;;;;;;20.40;12.25;;;4.30;42.50;;;;;;4701782;29;114607;-84
2023/04/06 12:47:41;;;;;;;18.13;12.52;;;4.30;42.60;;;;;;4714078;29;115711;-84